createdAt,value
2022-10-28T00:01:50.151Z,5.15
2022-10-28T00:04:17.062Z,5.63
2022-10-28T00:06:46.094Z,5.05
2022-10-28T00:09:13.510Z,5.43
2022-10-28T00:11:40.146Z,5.10
2022-10-28T00:14:08.166Z,5.45
2022-10-28T00:16:37.152Z,5.70
2022-10-28T00:19:07.950Z,5.10
2022-10-28T00:21:36.962Z,5.25
2022-10-28T00:24:04.365Z,4.90
2022-10-28T00:26:33.545Z,5.18
2022-10-28T00:29:03.813Z,5.18
2022-10-28T00:31:31.667Z,5.35
2022-10-28T00:33:59.830Z,5.18
2022-10-28T00:36:32.117Z,5.27
2022-10-28T00:38:59.793Z,5.28
2022-10-28T00:41:27.662Z,5.22
2022-10-28T00:43:57.111Z,4.55
2022-10-28T00:46:34.170Z,5.30
2022-10-28T00:49:12.942Z,4.80
2022-10-28T00:51:39.871Z,5.65
2022-10-28T00:54:07.595Z,5.20
2022-10-28T00:56:39.334Z,4.85
2022-10-28T00:59:11.645Z,5.60
2022-10-28T01:01:38.495Z,4.57
2022-10-28T01:04:05.354Z,4.70
2022-10-28T01:06:31.989Z,5.18
2022-10-28T01:09:00.135Z,4.88
2022-10-28T01:11:29.980Z,5.70
2022-10-28T01:14:05.411Z,5.03
2022-10-28T01:16:54.080Z,4.70
2022-10-28T01:19:32.703Z,5.40
2022-10-28T01:22:24.098Z,4.80
2022-10-28T01:24:56.804Z,4.97
2022-10-28T01:28:01.215Z,4.70
2022-10-28T01:30:35.860Z,4.60
2022-10-28T01:33:09.766Z,4.85
2022-10-28T01:35:53.697Z,5.10
2022-10-28T01:38:59.928Z,5.15
2022-10-28T01:41:40.766Z,4.80
2022-10-28T01:44:24.264Z,4.95
2022-10-28T01:46:55.844Z,4.93
2022-10-28T01:49:29.296Z,4.85
2022-10-28T01:52:00.310Z,5.28
2022-10-28T01:54:32.165Z,6.63
2022-10-28T01:57:02.159Z,5.60
2022-10-28T01:59:30.788Z,5.18
2022-10-28T02:01:57.766Z,6.03
2022-10-28T02:04:24.176Z,4.97
2022-10-28T02:06:54.608Z,5.03
2022-10-28T02:09:39.064Z,5.18
2022-10-28T02:12:29.861Z,5.30
2022-10-28T02:15:23.889Z,4.88
2022-10-28T02:18:16.127Z,5.20
2022-10-28T02:21:05.816Z,5.20
2022-10-28T02:23:41.457Z,5.63
2022-10-28T02:26:12.744Z,5.45
2022-10-28T02:28:42.038Z,5.13
2022-10-28T02:31:22.451Z,5.10
2022-10-28T02:33:54.249Z,5.13
2022-10-28T02:36:23.171Z,5.50
2022-10-28T02:38:52.427Z,4.82
2022-10-28T02:41:37.484Z,4.95
2022-10-28T02:44:09.815Z,4.97
2022-10-28T02:46:38.965Z,4.60
2022-10-28T02:49:10.427Z,5.13
2022-10-28T02:51:40.779Z,4.95
2022-10-28T02:54:15.142Z,5.88
2022-10-28T02:57:01.798Z,5.50
2022-10-28T02:59:29.088Z,4.83
2022-10-28T03:01:56.002Z,4.93
2022-10-28T03:04:22.799Z,5.00
2022-10-28T03:06:49.215Z,5.20
2022-10-28T03:09:15.541Z,5.53
2022-10-28T03:11:41.863Z,4.90
2022-10-28T03:14:10.718Z,4.93
2022-10-28T03:16:39.636Z,4.78
2022-10-28T03:19:06.035Z,4.63
2022-10-28T03:21:32.414Z,5.15
2022-10-28T03:23:58.861Z,4.77
2022-10-28T03:26:25.167Z,5.35
2022-10-28T03:28:51.558Z,4.57
2022-10-28T03:31:17.905Z,4.90
2022-10-28T03:33:44.230Z,5.03
2022-10-28T03:36:10.646Z,4.83
2022-10-28T03:38:37.042Z,4.80
2022-10-28T03:41:03.438Z,4.75
2022-10-28T03:43:29.956Z,4.57
2022-10-28T03:45:56.282Z,5.38
2022-10-28T03:48:22.604Z,4.43
2022-10-28T03:50:53.629Z,4.28
2022-10-28T03:53:20.795Z,4.53
2022-10-28T03:55:58.497Z,4.70
2022-10-28T03:58:25.221Z,4.90
2022-10-28T04:00:53.436Z,5.10
2022-10-28T04:03:22.058Z,4.13
2022-10-28T04:05:48.807Z,4.47
2022-10-28T04:08:16.586Z,4.22
2022-10-28T04:10:47.288Z,4.68
2022-10-28T04:13:15.292Z,4.80
2022-10-28T04:15:41.878Z,4.68
2022-10-28T04:18:08.563Z,4.82
2022-10-28T04:20:35.316Z,4.03
2022-10-28T04:23:02.085Z,4.47
2022-10-28T04:25:29.048Z,4.03
2022-10-28T04:27:56.258Z,4.97
2022-10-28T04:30:22.972Z,5.35
2022-10-28T04:32:49.319Z,4.07
2022-10-28T04:35:15.812Z,4.55
2022-10-28T04:37:42.136Z,4.47
2022-10-28T04:40:09.161Z,4.45
2022-10-28T04:42:35.764Z,4.70
2022-10-28T04:45:02.081Z,4.03
2022-10-28T04:47:28.727Z,4.03
2022-10-28T04:49:55.077Z,4.63
2022-10-28T04:52:21.515Z,4.15
2022-10-28T04:54:47.916Z,4.30
2022-10-28T04:57:14.319Z,4.75
2022-10-28T04:59:40.817Z,4.35
2022-10-28T05:02:07.304Z,3.85
2022-10-28T05:04:33.751Z,4.40
2022-10-28T05:07:00.326Z,4.38
2022-10-28T05:09:26.808Z,3.92
2022-10-28T05:11:54.213Z,4.57
2022-10-28T05:14:20.776Z,3.70
2022-10-28T05:16:47.076Z,3.97
2022-10-28T05:19:13.517Z,4.47
2022-10-28T05:21:39.870Z,3.50
2022-10-28T05:24:06.810Z,4.18
2022-10-28T05:26:33.178Z,4.03
2022-10-28T05:28:59.559Z,4.40
2022-10-28T05:31:25.908Z,3.90
2022-10-28T05:33:52.230Z,4.00
2022-10-28T05:36:18.564Z,3.97
2022-10-28T05:38:45.484Z,4.15
2022-10-28T05:41:12.230Z,4.22
2022-10-28T05:43:38.770Z,3.97
2022-10-28T05:46:05.167Z,3.83
2022-10-28T05:48:31.523Z,4.28
2022-10-28T05:50:57.870Z,4.30
2022-10-28T05:53:24.316Z,4.07
2022-10-28T05:55:50.657Z,3.85
2022-10-28T05:58:17.110Z,3.58
2022-10-28T06:00:43.630Z,3.80
2022-10-28T06:03:12.256Z,3.97
2022-10-28T06:05:43.910Z,4.63
2022-10-28T06:08:12.565Z,3.95
2022-10-28T06:10:39.613Z,4.30
2022-10-28T06:13:04.523Z,3.85
2022-10-28T06:15:31.000Z,3.97
2022-10-28T06:17:57.408Z,4.05
2022-10-28T06:20:23.917Z,4.25
2022-10-28T06:22:52.247Z,4.22
2022-10-28T06:25:20.536Z,4.10
2022-10-28T06:27:57.821Z,4.53
2022-10-28T06:30:25.968Z,3.70
2022-10-28T06:32:55.610Z,3.70
2022-10-28T06:35:21.989Z,3.83
2022-10-28T06:37:55.737Z,3.90
2022-10-28T06:40:24.478Z,3.37
2022-10-28T06:43:06.224Z,3.28
2022-10-28T06:45:33.654Z,3.90
2022-10-28T06:48:04.200Z,3.55
2022-10-28T06:50:30.933Z,4.07
2022-10-28T06:52:58.002Z,4.40
2022-10-28T06:55:28.101Z,4.25
2022-10-28T06:57:54.887Z,3.80
2022-10-28T07:00:21.721Z,4.47
2022-10-28T07:02:53.390Z,3.80
2022-10-28T07:05:20.563Z,3.63
2022-10-28T07:07:47.022Z,3.67
2022-10-28T07:10:13.386Z,3.42
2022-10-28T07:12:39.798Z,3.25
2022-10-28T07:15:07.079Z,3.75
2022-10-28T07:17:33.492Z,4.20
2022-10-28T07:19:59.860Z,3.60
2022-10-28T07:22:26.238Z,3.42
2022-10-28T07:24:55.624Z,3.88
2022-10-28T07:27:22.368Z,3.90
2022-10-28T07:29:48.821Z,3.40
2022-10-28T07:32:15.463Z,3.60
2022-10-28T07:34:41.865Z,3.75
2022-10-28T07:37:08.203Z,4.00
2022-10-28T07:39:34.792Z,3.47
2022-10-28T07:42:01.362Z,3.37
2022-10-28T07:44:27.791Z,4.57
2022-10-28T07:46:57.253Z,4.07
2022-10-28T07:49:24.759Z,3.55
2022-10-28T07:51:51.463Z,4.28
2022-10-28T07:54:17.824Z,3.40
2022-10-28T07:56:44.415Z,4.18
2022-10-28T07:59:10.771Z,3.47
2022-10-28T08:01:37.620Z,4.10
2022-10-28T08:04:04.098Z,3.20
2022-10-28T08:06:30.579Z,4.10
2022-10-28T08:08:57.380Z,3.55
2022-10-28T08:11:24.410Z,3.85
2022-10-28T08:13:55.163Z,3.60
2022-10-28T08:16:21.857Z,4.10
2022-10-28T08:18:48.458Z,3.93
2022-10-28T08:21:15.637Z,4.13
2022-10-28T08:23:46.375Z,3.45
2022-10-28T08:26:15.137Z,3.47
2022-10-28T08:28:42.212Z,3.58
2022-10-28T08:31:10.035Z,3.70
2022-10-28T08:33:38.107Z,4.05
2022-10-28T08:36:04.948Z,3.67
2022-10-28T08:38:31.330Z,5.10
2022-10-28T08:41:48.824Z,3.28
2022-10-28T08:44:42.366Z,3.70
2022-10-28T08:47:32.352Z,3.00
2022-10-28T08:50:05.392Z,3.10
2022-10-28T08:52:45.820Z,3.42
2022-10-28T08:55:28.884Z,3.08
2022-10-28T08:58:16.755Z,3.63
2022-10-28T09:00:46.872Z,2.95
2022-10-28T09:03:20.450Z,3.47
2022-10-28T09:05:49.962Z,3.67
2022-10-28T09:08:22.609Z,3.28
2022-10-28T09:11:07.793Z,3.50
2022-10-28T09:13:52.520Z,3.60
2022-10-28T09:16:43.243Z,3.20
2022-10-28T09:19:38.875Z,3.05
2022-10-28T09:22:27.604Z,2.97
2022-10-28T09:25:00.170Z,3.00
2022-10-28T09:28:02.051Z,2.95
2022-10-28T09:30:35.124Z,3.10
2022-10-28T09:33:11.681Z,4.53
2022-10-28T09:35:43.058Z,3.50
2022-10-28T09:38:21.979Z,3.10
2022-10-28T09:41:01.905Z,2.85
2022-10-28T09:43:38.606Z,2.88
2022-10-28T09:46:12.831Z,3.28
2022-10-28T09:48:46.903Z,3.38
2022-10-28T09:51:28.751Z,2.87
2022-10-28T09:53:59.545Z,3.10
2022-10-28T09:56:27.842Z,3.35
2022-10-28T09:58:57.994Z,3.30
2022-10-28T10:01:24.731Z,3.25
2022-10-28T10:03:52.202Z,3.30
2022-10-28T10:06:23.826Z,3.33
2022-10-28T10:08:50.270Z,2.75
2022-10-28T10:11:42.813Z,3.10
2022-10-28T10:14:18.625Z,3.10
2022-10-28T10:16:47.230Z,3.20
2022-10-28T10:19:13.893Z,2.90
2022-10-28T10:21:51.929Z,3.30
2022-10-28T10:24:26.334Z,3.50
2022-10-28T10:26:54.106Z,3.22
2022-10-28T10:29:22.027Z,3.47
2022-10-28T10:31:48.970Z,3.20
2022-10-28T10:34:24.159Z,4.07
2022-10-28T10:36:54.014Z,3.10
2022-10-28T10:39:26.252Z,3.50
2022-10-28T10:41:55.167Z,2.80
2022-10-28T10:44:21.481Z,2.85
2022-10-28T10:47:05.008Z,3.03
2022-10-28T10:49:36.616Z,3.38
2022-10-28T10:52:18.206Z,3.22
2022-10-28T10:54:58.598Z,3.43
2022-10-28T10:57:26.183Z,2.90
2022-10-28T10:59:55.226Z,2.80
2022-10-28T11:02:32.593Z,3.30
2022-10-28T11:05:02.581Z,3.17
2022-10-28T11:07:31.178Z,3.07
2022-10-28T11:09:57.739Z,2.80
2022-10-28T11:12:35.671Z,3.25
2022-10-28T11:15:23.527Z,3.00
2022-10-28T11:17:59.824Z,3.03
2022-10-28T11:20:28.369Z,2.40
2022-10-28T11:23:03.160Z,3.40
2022-10-28T11:25:35.190Z,3.08
2022-10-28T11:28:27.829Z,2.70
2022-10-28T11:31:03.576Z,2.85
2022-10-28T11:33:54.316Z,3.50
2022-10-28T11:36:25.850Z,2.50
2022-10-28T11:39:07.848Z,2.88
2022-10-28T11:41:52.705Z,3.10
2022-10-28T11:44:41.211Z,2.90
2022-10-28T11:47:26.355Z,2.90
2022-10-28T11:50:08.079Z,3.00
2022-10-28T11:52:56.119Z,2.45
2022-10-28T11:55:44.272Z,2.88
2022-10-28T11:58:39.598Z,2.50
2022-10-28T12:01:08.978Z,2.70
2022-10-28T12:03:48.497Z,2.97
2022-10-28T12:06:58.713Z,2.45
2022-10-28T12:09:33.934Z,2.38
2022-10-28T12:12:17.468Z,2.63
2022-10-28T12:15:01.728Z,2.43
2022-10-28T12:18:07.925Z,2.35
2022-10-28T12:20:57.682Z,2.70
2022-10-28T12:23:25.716Z,2.67
2022-10-28T12:25:55.784Z,2.13
2022-10-28T12:28:27.821Z,2.47
2022-10-28T12:30:56.920Z,2.88
2022-10-28T12:33:44.415Z,2.72
2022-10-28T12:36:32.190Z,2.30
2022-10-28T12:39:09.867Z,2.55
2022-10-28T12:42:02.603Z,2.43
2022-10-28T12:44:31.127Z,2.53
2022-10-28T12:47:05.023Z,2.53
2022-10-28T12:49:44.740Z,3.08
2022-10-28T12:52:25.125Z,2.30
2022-10-28T12:55:01.581Z,2.30
2022-10-28T12:57:30.481Z,2.63
2022-10-28T13:00:02.357Z,2.65
2022-10-28T13:02:34.246Z,2.72
2022-10-28T13:05:00.795Z,2.22
2022-10-28T13:07:58.527Z,3.17
2022-10-28T13:10:43.892Z,2.20
2022-10-28T13:13:28.848Z,2.80
2022-10-28T13:16:09.383Z,3.35
2022-10-28T13:18:54.765Z,2.80
2022-10-28T13:21:32.009Z,2.60
2022-10-28T13:24:23.456Z,2.83
2022-10-28T13:26:50.872Z,2.47
2022-10-28T13:29:27.222Z,2.63
2022-10-28T13:31:54.653Z,2.92
2022-10-28T13:34:30.353Z,2.87
2022-10-28T13:37:00.143Z,2.67
2022-10-28T13:39:29.475Z,2.70
2022-10-28T13:42:19.490Z,2.65
2022-10-28T13:44:59.744Z,2.50
2022-10-28T13:47:29.251Z,3.10
2022-10-28T13:50:08.213Z,2.72
2022-10-28T13:52:46.265Z,2.45
2022-10-28T13:55:43.701Z,2.70
2022-10-28T13:58:24.227Z,3.30
2022-10-28T14:00:53.338Z,2.40
2022-10-28T14:03:24.247Z,2.38
2022-10-28T14:05:53.899Z,3.08
2022-10-28T14:08:26.027Z,2.67
2022-10-28T14:11:13.638Z,2.80
2022-10-28T14:13:54.634Z,2.70
2022-10-28T14:16:29.217Z,2.47
2022-10-28T14:19:16.562Z,2.25
2022-10-28T14:22:02.669Z,2.40
2022-10-28T14:24:36.870Z,3.05
2022-10-28T14:27:09.763Z,2.33
2022-10-28T14:29:55.296Z,2.38
2022-10-28T14:32:30.874Z,3.55
2022-10-28T14:35:15.500Z,2.72
2022-10-28T14:37:50.830Z,2.60
2022-10-28T14:40:28.212Z,2.57
2022-10-28T14:43:26.407Z,2.55
2022-10-28T14:46:28.277Z,2.67
2022-10-28T14:48:58.630Z,2.70
2022-10-28T14:51:36.742Z,2.20
2022-10-28T14:54:09.146Z,2.87
2022-10-28T14:56:36.675Z,3.05
2022-10-28T14:59:22.728Z,2.63
2022-10-28T15:02:26.499Z,2.83
2022-10-28T15:05:16.131Z,2.85
2022-10-28T15:07:43.502Z,2.37
2022-10-28T15:10:23.058Z,1.95
2022-10-28T15:12:50.210Z,2.80
2022-10-28T15:15:22.199Z,2.35
2022-10-28T15:17:49.375Z,2.58
2022-10-28T15:20:28.876Z,2.60
2022-10-28T15:23:18.375Z,2.20
2022-10-28T15:25:45.425Z,2.80
2022-10-28T15:28:12.850Z,2.58
2022-10-28T15:30:46.449Z,2.70
2022-10-28T15:33:32.357Z,2.37
2022-10-28T15:36:17.775Z,1.77
2022-10-28T15:39:16.388Z,2.95
2022-10-28T15:41:45.860Z,2.08
2022-10-28T15:44:37.649Z,1.98
2022-10-28T15:47:29.150Z,1.93
2022-10-28T15:50:14.266Z,1.90
2022-10-28T15:52:44.983Z,2.17
2022-10-28T15:58:40.389Z,1.80
2022-10-28T16:01:40.270Z,1.93
2022-10-28T16:04:41.189Z,1.95
2022-10-28T16:07:08.829Z,1.70
2022-10-28T16:09:42.212Z,1.70
2022-10-28T16:12:21.233Z,1.65
2022-10-28T16:14:55.445Z,1.90
2022-10-28T16:17:24.151Z,1.67
2022-10-28T16:19:52.977Z,1.90
2022-10-28T16:22:20.302Z,1.48
2022-10-28T16:24:46.698Z,1.88
2022-10-28T16:27:17.495Z,1.60
2022-10-28T16:29:44.318Z,2.33
2022-10-28T16:32:12.342Z,1.90
2022-10-28T16:34:38.991Z,2.00
2022-10-28T16:37:20.862Z,1.60
2022-10-28T16:39:47.284Z,1.43
2022-10-28T16:42:14.120Z,1.52
2022-10-28T16:44:40.508Z,1.55
2022-10-28T16:47:14.535Z,1.80
2022-10-28T16:49:41.847Z,1.67
2022-10-28T16:52:22.519Z,2.00
2022-10-28T16:54:50.372Z,2.03
2022-10-28T16:57:19.241Z,1.92
2022-10-28T16:59:46.791Z,1.65
2022-10-28T17:02:30.596Z,1.80
2022-10-28T17:04:58.070Z,2.20
2022-10-28T17:07:25.007Z,2.00
2022-10-28T17:09:54.251Z,2.35
2022-10-28T17:12:24.172Z,1.67
2022-10-28T17:14:51.131Z,2.15
2022-10-28T17:17:17.936Z,1.43
2022-10-28T17:19:45.579Z,1.67
2022-10-28T17:22:12.679Z,1.77
2022-10-28T17:24:39.142Z,1.75
2022-10-28T17:27:06.216Z,1.73
2022-10-28T17:29:32.571Z,2.40
2022-10-28T17:31:59.052Z,2.25
2022-10-28T17:34:25.483Z,2.22
2022-10-28T17:36:51.838Z,2.35
2022-10-28T17:39:23.301Z,2.00
2022-10-28T17:41:52.225Z,2.27
2022-10-28T17:44:18.583Z,2.20
2022-10-28T17:46:45.056Z,1.98
2022-10-28T17:49:11.458Z,2.30
2022-10-28T17:51:38.516Z,2.28
2022-10-28T17:54:06.068Z,2.03
2022-10-28T17:56:33.741Z,3.05
2022-10-28T17:59:03.603Z,2.63
2022-10-28T18:01:32.320Z,2.03
2022-10-28T18:03:59.198Z,2.72
2022-10-28T18:06:25.962Z,2.27
2022-10-28T18:08:52.342Z,2.45
2022-10-28T18:11:22.145Z,2.50
2022-10-28T18:13:51.303Z,3.05
2022-10-28T18:16:20.377Z,2.60
2022-10-28T18:18:47.275Z,2.73
2022-10-28T18:21:14.888Z,2.67
2022-10-28T18:23:41.372Z,2.63
2022-10-28T18:26:11.682Z,2.30
2022-10-28T18:28:39.614Z,2.30
2022-10-28T18:31:14.180Z,2.70
2022-10-28T18:33:42.066Z,2.83
2022-10-28T18:36:14.416Z,3.28
2022-10-28T18:38:41.079Z,2.45
2022-10-28T18:41:15.741Z,3.03
2022-10-28T18:43:42.250Z,2.17
2022-10-28T18:46:09.223Z,2.67
2022-10-28T18:48:35.778Z,2.45
2022-10-28T18:51:06.724Z,2.17
2022-10-28T18:53:41.993Z,2.00
2022-10-28T18:56:12.002Z,2.13
2022-10-28T18:58:38.658Z,1.17
2022-10-28T19:01:07.368Z,1.83
2022-10-28T19:03:33.917Z,1.30
2022-10-28T19:06:02.413Z,1.30
2022-10-28T19:08:28.902Z,1.10
2022-10-28T19:10:57.019Z,1.33
2022-10-28T19:13:23.875Z,1.25
2022-10-28T19:15:50.432Z,2.00
2022-10-28T19:18:19.279Z,1.55
2022-10-28T19:20:45.970Z,1.63
2022-10-28T19:23:12.391Z,1.50
2022-10-28T19:25:38.890Z,1.70
2022-10-28T19:28:05.459Z,1.10
2022-10-28T19:30:31.941Z,1.25
2022-10-28T19:32:58.493Z,1.30
2022-10-28T19:35:25.050Z,1.00
2022-10-28T19:37:54.888Z,1.17
2022-10-28T19:40:21.256Z,1.27
2022-10-28T19:42:47.700Z,1.15
2022-10-28T19:45:15.012Z,1.57
2022-10-28T19:47:41.464Z,1.00
2022-10-28T19:50:08.647Z,1.35
2022-10-28T19:52:35.046Z,1.05
2022-10-28T19:55:01.377Z,1.10
2022-10-28T19:57:27.773Z,1.60
2022-10-28T19:59:54.110Z,1.30
2022-10-28T20:02:20.608Z,1.30
2022-10-28T20:04:48.786Z,1.10
2022-10-28T20:07:15.326Z,1.10
2022-10-28T20:09:41.804Z,1.30
2022-10-28T20:12:08.206Z,1.33
2022-10-28T20:14:34.648Z,1.05
2022-10-28T20:17:06.323Z,1.30
2022-10-28T20:19:33.364Z,1.58
2022-10-28T20:21:59.958Z,1.10
2022-10-28T20:24:26.425Z,1.02
2022-10-28T20:26:52.775Z,1.20
2022-10-28T20:29:19.130Z,1.42
2022-10-28T20:31:45.475Z,0.95
2022-10-28T20:34:11.844Z,1.00
2022-10-28T20:36:40.760Z,0.80
2022-10-28T20:39:15.694Z,1.25
2022-10-28T20:41:44.013Z,2.33
2022-10-28T20:44:10.456Z,1.17
2022-10-28T20:46:37.300Z,1.07
2022-10-28T20:49:04.683Z,1.10
2022-10-28T20:51:32.702Z,1.05
2022-10-28T20:53:59.738Z,1.55
2022-10-28T20:56:28.604Z,1.38
2022-10-28T20:58:57.791Z,1.90
2022-10-28T21:01:27.240Z,1.17
2022-10-28T21:03:55.756Z,1.00
2022-10-28T21:06:22.691Z,1.17
2022-10-28T21:08:49.346Z,1.30
2022-10-28T21:11:17.376Z,1.03
2022-10-28T21:13:46.108Z,0.80
2022-10-28T21:16:14.159Z,0.95
2022-10-28T21:18:41.146Z,1.20
2022-10-28T21:21:07.764Z,1.02
2022-10-28T21:23:34.462Z,1.20
2022-10-28T21:26:03.659Z,1.08
2022-10-28T21:28:32.030Z,1.13
2022-10-28T21:31:18.122Z,1.10
2022-10-28T21:33:45.304Z,1.00
2022-10-28T21:36:17.192Z,1.10
2022-10-28T21:38:44.166Z,1.80
2022-10-28T21:41:14.492Z,1.60
2022-10-28T21:43:43.738Z,1.30
2022-10-28T21:46:10.466Z,1.23
2022-10-28T21:48:37.835Z,1.30
2022-10-28T21:51:13.480Z,1.10
2022-10-28T21:53:42.580Z,1.05
2022-10-28T21:56:16.624Z,1.10
2022-10-28T21:58:44.122Z,1.35
2022-10-28T22:01:13.261Z,1.93
2022-10-28T22:03:40.919Z,2.10
2022-10-28T22:06:07.539Z,1.42
2022-10-28T22:08:34.547Z,1.60
2022-10-28T22:11:00.998Z,1.17
2022-10-28T22:13:28.098Z,1.60
2022-10-28T22:15:59.763Z,1.27
2022-10-28T22:18:27.110Z,1.60
2022-10-28T22:20:53.537Z,1.77
2022-10-28T22:23:19.957Z,1.70
2022-10-28T22:25:46.507Z,1.37
2022-10-28T22:28:13.234Z,1.27
2022-10-28T22:30:39.696Z,1.90
2022-10-28T22:33:06.058Z,1.80
2022-10-28T22:35:32.523Z,1.70
2022-10-28T22:37:58.893Z,1.60
2022-10-28T22:40:25.333Z,1.90
2022-10-28T22:42:51.731Z,2.13
2022-10-28T22:45:20.680Z,2.78
2022-10-28T22:47:49.491Z,1.98
2022-10-28T22:50:15.918Z,2.23
2022-10-28T22:52:42.303Z,2.78
2022-10-28T22:55:09.147Z,2.58
2022-10-28T22:57:35.517Z,2.83
2022-10-28T23:00:02.207Z,1.92
2022-10-28T23:02:30.706Z,2.30
2022-10-28T23:04:57.124Z,2.60
2022-10-28T23:07:23.530Z,2.25
2022-10-28T23:09:49.899Z,2.75
2022-10-28T23:12:16.276Z,2.95
2022-10-28T23:14:42.614Z,2.70
2022-10-28T23:17:09.025Z,2.30
2022-10-28T23:19:35.397Z,2.80
2022-10-28T23:22:01.856Z,2.10
2022-10-28T23:24:30.678Z,2.65
2022-10-28T23:29:24.327Z,2.75
2022-10-28T23:31:50.814Z,2.15
2022-10-28T23:34:17.212Z,2.20
2022-10-28T23:36:43.562Z,2.90
2022-10-28T23:39:09.984Z,2.07
2022-10-28T23:41:36.357Z,1.98
2022-10-28T23:44:02.728Z,2.90
2022-10-28T23:46:33.624Z,2.63
2022-10-28T23:49:03.354Z,2.25
2022-10-28T23:51:29.992Z,2.37
2022-10-28T23:53:56.575Z,2.20
2022-10-28T23:56:22.937Z,2.88
2022-10-28T23:58:49.360Z,2.20
